createdAt,value
2023-05-18T00:00:37.992Z,9.66
2023-05-18T00:03:07.110Z,9.65
2023-05-18T00:05:35.350Z,9.55
2023-05-18T00:08:03.475Z,9.47
2023-05-18T00:10:31.701Z,9.41
2023-05-18T00:12:59.829Z,9.40
2023-05-18T00:15:29.546Z,9.50
2023-05-18T00:17:58.568Z,9.42
2023-05-18T00:20:27.542Z,9.48
2023-05-18T00:22:55.756Z,9.54
2023-05-18T00:25:24.108Z,9.54
2023-05-18T00:27:52.252Z,9.63
2023-05-18T00:30:20.666Z,9.69
2023-05-18T00:32:50.184Z,9.75
2023-05-18T00:35:18.290Z,9.75
2023-05-18T00:37:46.509Z,9.75
2023-05-18T00:40:14.850Z,9.78
2023-05-18T00:42:42.896Z,9.78
2023-05-18T00:45:11.952Z,9.83
2023-05-18T00:47:40.108Z,9.85
2023-05-18T00:50:12.536Z,9.88
2023-05-18T00:52:41.588Z,9.84
2023-05-18T00:55:12.697Z,9.84
2023-05-18T00:57:42.094Z,9.81
2023-05-18T01:00:13.977Z,9.74
2023-05-18T01:02:45.506Z,9.70
2023-05-18T01:05:15.185Z,9.68
2023-05-18T01:07:43.502Z,9.64
2023-05-18T01:10:16.293Z,9.69
2023-05-18T01:12:51.766Z,9.64
2023-05-18T01:15:24.380Z,9.56
2023-05-18T01:18:10.233Z,9.60
2023-05-18T01:20:47.760Z,9.65
2023-05-18T01:23:54.870Z,9.62
2023-05-18T01:26:31.527Z,9.61
2023-05-18T01:29:03.604Z,9.65
2023-05-18T01:31:32.333Z,9.65
2023-05-18T01:34:00.586Z,9.66
2023-05-18T01:36:28.905Z,9.62
2023-05-18T01:39:01.441Z,9.70
2023-05-18T01:41:33.268Z,9.68
2023-05-18T01:44:07.057Z,9.74
2023-05-18T01:46:44.330Z,9.72
2023-05-18T01:49:21.656Z,9.71
2023-05-18T01:51:51.754Z,9.69
2023-05-18T01:54:23.018Z,9.73
2023-05-18T01:56:54.818Z,9.74
2023-05-18T01:59:25.328Z,9.67
2023-05-18T02:01:59.268Z,9.70
2023-05-18T02:04:28.521Z,9.69
2023-05-18T02:06:57.097Z,9.64
2023-05-18T02:09:25.441Z,9.59
2023-05-18T02:11:54.882Z,9.60
2023-05-18T02:14:23.075Z,9.55
2023-05-18T02:16:54.245Z,9.52
2023-05-18T02:19:25.362Z,9.50
2023-05-18T02:21:54.961Z,9.46
2023-05-18T02:24:23.314Z,9.50
2023-05-18T02:26:51.545Z,9.56
2023-05-18T02:29:22.752Z,9.64
2023-05-18T02:31:51.149Z,9.68
2023-05-18T02:34:19.699Z,9.72
2023-05-18T02:36:48.737Z,9.73
2023-05-18T02:39:17.246Z,9.74
2023-05-18T02:41:45.377Z,9.66
2023-05-18T02:44:13.685Z,9.60
2023-05-18T02:46:43.129Z,9.60
2023-05-18T02:49:11.853Z,9.61
2023-05-18T02:51:40.184Z,9.67
2023-05-18T02:54:08.344Z,9.73
2023-05-18T02:56:43.450Z,9.71
2023-05-18T02:59:33.043Z,9.65
2023-05-18T03:02:02.645Z,9.63
2023-05-18T03:04:31.725Z,9.62
2023-05-18T03:07:02.703Z,9.66
2023-05-18T03:09:30.999Z,9.60
2023-05-18T03:11:59.275Z,9.52
2023-05-18T03:14:29.995Z,9.47
2023-05-18T03:17:00.510Z,9.51
2023-05-18T03:19:30.028Z,9.53
2023-05-18T03:21:58.840Z,9.56
2023-05-18T03:24:30.119Z,9.61
2023-05-18T03:27:00.944Z,9.64
2023-05-18T03:29:31.301Z,9.67
2023-05-18T03:32:00.802Z,9.70
2023-05-18T03:34:30.330Z,9.68
2023-05-18T03:36:58.582Z,9.66
2023-05-18T03:39:26.922Z,9.73
2023-05-18T03:41:55.169Z,9.76
2023-05-18T03:44:24.023Z,9.76
2023-05-18T03:46:52.392Z,9.73
2023-05-18T03:49:20.538Z,9.79
2023-05-18T03:51:50.061Z,9.83
2023-05-18T03:54:18.180Z,9.82
2023-05-18T03:56:47.017Z,9.67
2023-05-18T03:59:15.252Z,9.79
2023-05-18T04:01:44.506Z,9.78
2023-05-18T04:04:17.906Z,9.73
2023-05-18T04:06:46.933Z,9.75
2023-05-18T04:09:17.305Z,9.84
2023-05-18T04:11:46.492Z,9.89
2023-05-18T04:14:18.082Z,10.02
2023-05-18T04:16:46.707Z,10.08
2023-05-18T04:19:15.912Z,10.15
2023-05-18T04:21:44.103Z,10.07
2023-05-18T04:24:14.455Z,10.05
2023-05-18T04:26:43.949Z,10.01
2023-05-18T04:29:13.610Z,9.98
2023-05-18T04:31:44.722Z,9.97
2023-05-18T04:34:14.285Z,9.95
2023-05-18T04:36:43.857Z,9.95
2023-05-18T04:39:13.171Z,9.98
2023-05-18T04:41:42.176Z,9.98
2023-05-18T04:44:14.135Z,10.00
2023-05-18T04:46:42.665Z,10.04
2023-05-18T04:49:11.669Z,10.12
2023-05-18T04:51:42.016Z,10.14
2023-05-18T04:54:10.369Z,10.27
2023-05-18T04:56:38.638Z,10.32
2023-05-18T04:59:09.339Z,10.31
2023-05-18T05:01:38.806Z,10.36
2023-05-18T05:04:06.946Z,10.34
2023-05-18T05:06:35.127Z,10.34
2023-05-18T05:09:04.606Z,10.42
2023-05-18T05:11:32.774Z,10.49
2023-05-18T05:14:02.307Z,10.53
2023-05-18T05:16:30.643Z,10.52
2023-05-18T05:19:00.249Z,10.57
2023-05-18T05:21:28.925Z,10.58
2023-05-18T05:23:57.357Z,10.63
2023-05-18T05:26:27.427Z,10.68
2023-05-18T05:28:55.525Z,10.74
2023-05-18T05:31:23.686Z,10.87
2023-05-18T05:33:52.761Z,10.95
2023-05-18T05:36:22.664Z,10.80
2023-05-18T05:38:50.931Z,10.82
2023-05-18T05:41:19.063Z,10.90
2023-05-18T05:43:47.187Z,11.01
2023-05-18T05:46:15.765Z,11.00
2023-05-18T05:48:44.372Z,10.80
2023-05-18T05:51:12.550Z,10.86
2023-05-18T05:53:43.520Z,10.84
2023-05-18T05:56:11.662Z,11.03
2023-05-18T05:58:43.045Z,11.03
2023-05-18T06:01:11.662Z,11.11
2023-05-18T06:03:40.356Z,11.15
2023-05-18T06:06:09.020Z,11.17
2023-05-18T06:08:37.345Z,11.11
2023-05-18T06:11:07.781Z,11.07
2023-05-18T06:13:37.552Z,10.82
2023-05-18T06:16:06.734Z,11.05
2023-05-18T06:18:34.965Z,11.14
2023-05-18T06:21:05.860Z,10.86
2023-05-18T06:23:34.478Z,11.05
2023-05-18T06:26:03.044Z,11.06
2023-05-18T06:28:57.683Z,10.94
2023-05-18T06:31:46.051Z,10.86
2023-05-18T06:34:33.055Z,10.85
2023-05-18T06:37:02.229Z,10.60
2023-05-18T06:39:30.433Z,10.67
2023-05-18T06:41:58.802Z,10.61
2023-05-18T06:44:35.198Z,10.86
2023-05-18T06:47:09.180Z,10.84
2023-05-18T06:49:37.680Z,10.96
2023-05-18T06:52:06.766Z,10.98
2023-05-18T06:54:35.281Z,11.19
2023-05-18T06:57:03.707Z,11.17
2023-05-18T06:59:34.630Z,11.23
2023-05-18T07:02:03.962Z,11.07
2023-05-18T07:04:32.932Z,11.27
2023-05-18T07:07:01.533Z,11.14
2023-05-18T07:09:29.780Z,11.22
2023-05-18T07:11:57.866Z,11.42
2023-05-18T07:14:26.052Z,11.27
2023-05-18T07:16:55.676Z,11.29
2023-05-18T07:19:23.965Z,11.38
2023-05-18T07:21:52.738Z,11.56
2023-05-18T07:24:21.024Z,11.63
2023-05-18T07:26:49.413Z,11.81
2023-05-18T07:29:17.834Z,11.72
2023-05-18T07:31:46.611Z,11.79
2023-05-18T07:34:17.161Z,11.86
2023-05-18T07:36:45.604Z,11.52
2023-05-18T07:39:24.344Z,11.84
2023-05-18T07:41:52.679Z,11.99
2023-05-18T07:44:21.037Z,12.05
2023-05-18T07:46:49.178Z,12.19
2023-05-18T07:49:18.860Z,12.35
2023-05-18T07:51:47.228Z,12.29
2023-05-18T07:54:15.369Z,12.28
2023-05-18T07:56:44.273Z,12.28
2023-05-18T07:59:12.683Z,12.59
2023-05-18T08:01:41.489Z,12.71
2023-05-18T08:04:15.060Z,12.68
2023-05-18T08:06:44.796Z,12.96
2023-05-18T08:09:17.052Z,12.86
2023-05-18T08:14:42.472Z,13.05
2023-05-18T08:17:11.137Z,13.09
2023-05-18T08:19:41.834Z,13.17
2023-05-18T08:22:11.787Z,13.15
2023-05-18T08:24:39.948Z,13.11
2023-05-18T08:27:09.885Z,13.07
2023-05-18T08:29:38.097Z,13.16
2023-05-18T08:32:08.085Z,13.21
2023-05-18T08:34:36.770Z,13.44
2023-05-18T08:37:05.330Z,13.64
2023-05-18T08:39:35.068Z,13.78
2023-05-18T08:42:08.712Z,13.63
2023-05-18T08:44:46.531Z,13.60
2023-05-18T08:47:17.594Z,13.86
2023-05-18T08:49:50.478Z,13.94
2023-05-18T08:52:23.162Z,13.87
2023-05-18T08:54:54.056Z,13.92
2023-05-18T08:57:24.489Z,14.00
2023-05-18T08:59:55.420Z,13.92
2023-05-18T09:02:25.176Z,14.10
2023-05-18T09:04:54.642Z,14.33
2023-05-18T09:07:24.433Z,14.48
2023-05-18T09:09:55.686Z,14.52
2023-05-18T09:12:24.690Z,14.58
2023-05-18T09:14:53.985Z,14.44
2023-05-18T09:17:24.691Z,14.58
2023-05-18T09:19:53.573Z,14.75
2023-05-18T09:22:21.889Z,14.76
2023-05-18T09:24:51.347Z,14.94
2023-05-18T09:27:21.636Z,14.91
2023-05-18T09:29:58.092Z,14.86
2023-05-18T09:32:27.590Z,15.03
2023-05-18T09:34:56.093Z,15.07
2023-05-18T09:37:24.487Z,15.04
2023-05-18T09:40:01.359Z,15.18
2023-05-18T09:42:37.808Z,15.25
2023-05-18T09:45:16.905Z,15.25
2023-05-18T09:47:45.132Z,15.40
2023-05-18T09:50:21.005Z,15.40
2023-05-18T09:52:50.866Z,15.42
2023-05-18T09:55:48.238Z,15.40
2023-05-18T09:58:42.206Z,15.55
2023-05-18T10:01:10.374Z,15.58
2023-05-18T10:03:39.528Z,15.55
2023-05-18T10:06:13.248Z,15.56
2023-05-18T10:08:45.527Z,15.56
2023-05-18T10:11:38.535Z,15.73
2023-05-18T10:14:14.495Z,15.99
2023-05-18T10:16:43.282Z,16.14
2023-05-18T10:19:14.689Z,16.11
2023-05-18T10:21:43.372Z,16.27
2023-05-18T10:24:14.502Z,16.61
2023-05-18T10:26:44.945Z,16.81
2023-05-18T10:29:14.863Z,16.96
2023-05-18T10:31:43.609Z,16.97
2023-05-18T10:34:12.372Z,17.05
2023-05-18T10:36:41.143Z,17.11
2023-05-18T10:39:11.263Z,17.19
2023-05-18T10:41:40.957Z,17.17
2023-05-18T10:44:09.182Z,17.42
2023-05-18T10:46:39.313Z,17.37
2023-05-18T10:49:14.717Z,17.58
2023-05-18T10:51:44.660Z,17.69
2023-05-18T10:54:14.617Z,17.76
2023-05-18T10:56:45.192Z,17.54
2023-05-18T10:59:18.433Z,17.37
2023-05-18T11:01:50.687Z,17.25
2023-05-18T11:04:26.941Z,17.08
2023-05-18T11:06:58.936Z,17.18
2023-05-18T11:09:29.760Z,17.21
2023-05-18T11:12:02.467Z,17.01
2023-05-18T11:14:32.840Z,17.19
2023-05-18T11:17:23.368Z,17.36
2023-05-18T11:20:17.173Z,17.48
2023-05-18T11:22:51.397Z,17.32
2023-05-18T11:25:40.918Z,17.02
2023-05-18T11:28:14.714Z,17.09
2023-05-18T11:30:49.944Z,17.40
2023-05-18T11:33:26.080Z,17.46
2023-05-18T11:36:04.396Z,17.53
2023-05-18T11:38:54.802Z,17.52
2023-05-18T11:41:32.403Z,17.64
2023-05-18T11:44:20.850Z,17.78
2023-05-18T11:47:03.544Z,17.33
2023-05-18T11:49:37.559Z,17.27
2023-05-18T11:52:08.900Z,17.52
2023-05-18T11:54:46.885Z,17.66
2023-05-18T11:57:18.681Z,17.65
2023-05-18T11:59:48.892Z,17.84
2023-05-18T12:02:23.132Z,17.76
2023-05-18T12:04:56.405Z,17.88
2023-05-18T12:07:26.149Z,17.91
2023-05-18T12:09:58.349Z,18.04
2023-05-18T12:12:27.291Z,18.18
2023-05-18T12:14:59.021Z,17.90
2023-05-18T12:17:40.300Z,17.91
2023-05-18T12:20:13.818Z,17.85
2023-05-18T12:22:43.065Z,17.98
2023-05-18T12:25:12.722Z,17.97
2023-05-18T12:27:41.945Z,17.92
2023-05-18T12:30:13.822Z,17.89
2023-05-18T12:32:47.089Z,17.98
2023-05-18T12:35:16.741Z,18.04
2023-05-18T12:37:46.289Z,17.96
2023-05-18T12:40:16.917Z,17.96
2023-05-18T12:42:53.795Z,18.05
2023-05-18T12:45:26.945Z,18.11
2023-05-18T12:47:56.310Z,18.03
2023-05-18T12:50:27.318Z,18.10
2023-05-18T12:52:57.446Z,18.02
2023-05-18T12:55:26.652Z,18.12
2023-05-18T12:58:07.894Z,18.13
2023-05-18T13:00:37.823Z,18.02
2023-05-18T13:03:14.492Z,18.20
2023-05-18T13:05:46.453Z,18.26
2023-05-18T13:08:18.030Z,18.26
2023-05-18T13:10:49.312Z,18.20
2023-05-18T13:13:23.764Z,18.28
2023-05-18T13:15:52.556Z,18.35
2023-05-18T13:18:20.794Z,18.36
2023-05-18T13:20:53.590Z,18.39
2023-05-18T13:23:24.000Z,18.18
2023-05-18T13:25:52.365Z,18.21
2023-05-18T13:28:22.549Z,18.33
2023-05-18T13:30:51.511Z,18.29
2023-05-18T13:33:19.718Z,18.37
2023-05-18T13:35:50.985Z,18.50
2023-05-18T13:38:19.162Z,18.44
2023-05-18T13:40:47.416Z,18.41
2023-05-18T13:43:15.639Z,18.48
2023-05-18T13:45:44.424Z,18.45
2023-05-18T13:48:12.819Z,18.12
2023-05-18T13:50:41.138Z,18.31
2023-05-18T13:53:10.750Z,18.47
2023-05-18T13:55:39.152Z,18.43
2023-05-18T13:58:07.573Z,18.57
2023-05-18T14:00:36.493Z,18.53
2023-05-18T14:03:05.210Z,18.55
2023-05-18T14:05:33.685Z,18.33
2023-05-18T14:08:01.900Z,18.53
2023-05-18T14:10:31.961Z,18.32
2023-05-18T14:13:00.251Z,18.32
2023-05-18T14:15:28.344Z,18.29
2023-05-18T14:17:56.640Z,18.46
2023-05-18T14:20:24.873Z,18.51
2023-05-18T14:22:53.152Z,18.41
2023-05-18T14:25:21.234Z,18.33
2023-05-18T14:27:50.959Z,18.24
2023-05-18T14:30:19.107Z,18.02
2023-05-18T14:32:47.366Z,17.93
2023-05-18T14:35:15.706Z,17.95
2023-05-18T14:37:43.804Z,18.00
2023-05-18T14:40:12.785Z,18.16
2023-05-18T14:42:40.972Z,18.15
2023-05-18T14:45:11.816Z,18.23
2023-05-18T14:47:39.960Z,18.16
2023-05-18T14:50:09.487Z,18.33
2023-05-18T14:52:37.649Z,18.30
2023-05-18T14:55:06.657Z,18.35
2023-05-18T14:57:37.857Z,18.44
2023-05-18T15:00:07.346Z,18.38
2023-05-18T15:02:37.068Z,18.38
2023-05-18T15:05:06.325Z,18.45
2023-05-18T15:07:34.667Z,18.03
2023-05-18T15:10:02.845Z,17.99
2023-05-18T15:12:31.187Z,18.10
2023-05-18T15:14:59.315Z,18.10
2023-05-18T15:17:27.575Z,17.99
2023-05-18T15:19:57.236Z,17.94
2023-05-18T15:22:25.439Z,17.98
2023-05-18T15:24:53.804Z,18.18
2023-05-18T15:27:22.071Z,18.24
2023-05-18T15:29:50.254Z,18.29
2023-05-18T15:32:20.885Z,18.36
2023-05-18T15:34:49.014Z,18.37
2023-05-18T15:37:18.526Z,18.17
2023-05-18T15:39:46.653Z,17.91
2023-05-18T15:42:15.020Z,18.05
2023-05-18T15:44:43.218Z,18.15
2023-05-18T15:47:11.505Z,18.15
2023-05-18T15:49:39.667Z,18.02
2023-05-18T15:52:08.960Z,18.16
2023-05-18T15:54:38.414Z,18.09
2023-05-18T15:57:07.437Z,18.23
2023-05-18T15:59:35.638Z,17.98
2023-05-18T16:02:03.745Z,18.05
2023-05-18T16:04:31.866Z,17.99
2023-05-18T16:06:59.996Z,18.02
2023-05-18T16:09:28.478Z,18.02
2023-05-18T16:11:58.177Z,18.09
2023-05-18T16:14:31.311Z,18.00
2023-05-18T16:16:59.456Z,17.91
2023-05-18T16:19:27.797Z,17.85
2023-05-18T16:21:56.798Z,17.91
2023-05-18T16:24:24.878Z,17.99
2023-05-18T16:27:01.303Z,17.84
2023-05-18T16:29:29.571Z,17.82
2023-05-18T16:31:57.751Z,17.63
2023-05-18T16:34:25.915Z,17.69
2023-05-18T16:36:54.080Z,17.80
2023-05-18T16:39:22.193Z,17.73
2023-05-18T16:41:50.361Z,17.69
2023-05-18T16:44:19.822Z,17.83
2023-05-18T16:46:48.112Z,17.77
2023-05-18T16:49:16.322Z,17.90
2023-05-18T16:51:44.569Z,17.78
2023-05-18T16:54:17.542Z,17.83
2023-05-18T16:56:46.704Z,17.86
2023-05-18T16:59:15.393Z,17.85
2023-05-18T17:01:44.881Z,17.68
2023-05-18T17:04:13.613Z,17.60
2023-05-18T17:06:42.056Z,17.62
2023-05-18T17:09:10.182Z,17.66
2023-05-18T17:11:38.313Z,17.70
2023-05-18T17:14:30.350Z,17.67
2023-05-18T17:16:59.814Z,17.81
2023-05-18T17:19:28.141Z,17.87
2023-05-18T17:21:57.128Z,17.74
2023-05-18T17:24:25.275Z,17.78
2023-05-18T17:26:53.648Z,17.80
2023-05-18T17:29:21.973Z,17.82
2023-05-18T17:31:50.467Z,17.72
2023-05-18T17:34:20.172Z,17.74
2023-05-18T17:36:49.742Z,17.79
2023-05-18T17:39:17.983Z,17.93
2023-05-18T17:41:46.137Z,17.80
2023-05-18T17:44:16.237Z,17.64
2023-05-18T17:46:46.147Z,17.60
2023-05-18T17:49:15.061Z,17.68
2023-05-18T17:51:44.706Z,17.73
2023-05-18T17:54:13.368Z,17.70
2023-05-18T17:56:41.542Z,17.68
2023-05-18T17:59:09.753Z,17.72
2023-05-18T18:01:38.058Z,17.77
2023-05-18T18:04:07.095Z,17.71
2023-05-18T18:06:35.638Z,17.70
2023-05-18T18:09:05.948Z,17.67
2023-05-18T18:11:34.129Z,17.51
2023-05-18T18:14:03.171Z,17.50
2023-05-18T18:16:31.470Z,17.68
2023-05-18T18:18:59.604Z,17.63
2023-05-18T18:21:27.688Z,17.63
2023-05-18T18:23:55.976Z,17.67
2023-05-18T18:26:32.777Z,17.55
2023-05-18T18:29:00.822Z,17.54
2023-05-18T18:31:53.676Z,17.58
2023-05-18T18:34:21.827Z,17.63
2023-05-18T18:36:49.940Z,17.62
2023-05-18T18:39:19.150Z,17.63
2023-05-18T18:41:48.664Z,17.58
2023-05-18T18:44:19.057Z,17.62
2023-05-18T18:46:47.794Z,17.64
2023-05-18T18:49:17.078Z,17.59
2023-05-18T18:52:13.029Z,17.54
2023-05-18T18:54:42.019Z,17.54
2023-05-18T18:57:12.077Z,17.57
2023-05-18T18:59:40.426Z,17.59
2023-05-18T19:02:09.331Z,17.62
2023-05-18T19:04:37.509Z,17.53
2023-05-18T19:07:06.066Z,17.56
2023-05-18T19:09:36.091Z,17.57
2023-05-18T19:12:04.681Z,17.60
2023-05-18T19:14:34.129Z,17.64
2023-05-18T19:17:02.558Z,17.62
2023-05-18T19:19:33.096Z,17.54
2023-05-18T19:22:01.466Z,17.51
2023-05-18T19:24:29.651Z,17.51
2023-05-18T19:26:57.769Z,17.42
2023-05-18T19:29:25.893Z,17.36
2023-05-18T19:31:57.213Z,17.40
2023-05-18T19:34:25.780Z,17.35
2023-05-18T19:36:54.055Z,17.30
2023-05-18T19:39:22.134Z,17.27
2023-05-18T19:41:50.201Z,17.23
2023-05-18T19:44:18.293Z,17.23
2023-05-18T19:46:46.544Z,17.27
2023-05-18T19:49:16.078Z,17.29
2023-05-18T19:51:44.210Z,17.19
2023-05-18T19:54:12.984Z,17.08
2023-05-18T19:56:42.097Z,17.13
2023-05-18T19:59:10.139Z,17.17
2023-05-18T20:01:38.287Z,17.15
2023-05-18T20:04:06.678Z,17.22
2023-05-18T20:06:36.791Z,17.16
2023-05-18T20:09:05.153Z,17.11
2023-05-18T20:11:33.414Z,17.11
2023-05-18T20:14:02.165Z,17.04
2023-05-18T20:16:33.735Z,17.03
2023-05-18T20:19:03.353Z,17.02
2023-05-18T20:21:31.811Z,16.96
2023-05-18T20:24:01.430Z,16.98
2023-05-18T20:26:31.962Z,16.93
2023-05-18T20:29:00.374Z,16.87
2023-05-18T20:31:28.663Z,16.83
2023-05-18T20:33:58.051Z,16.74
2023-05-18T20:36:26.678Z,16.65
2023-05-18T20:38:55.080Z,16.55
2023-05-18T20:41:25.862Z,16.52
2023-05-18T20:43:54.225Z,16.43
2023-05-18T20:46:24.974Z,16.37
2023-05-18T20:48:55.262Z,16.33
2023-05-18T20:51:24.692Z,16.29
2023-05-18T20:53:53.176Z,16.24
2023-05-18T20:56:21.913Z,16.19
2023-05-18T20:58:51.376Z,16.14
2023-05-18T21:01:21.028Z,16.09
2023-05-18T21:03:49.497Z,16.04
2023-05-18T21:06:17.867Z,15.99
2023-05-18T21:08:46.233Z,15.93
2023-05-18T21:11:14.351Z,15.88
2023-05-18T21:13:42.404Z,15.83
2023-05-18T21:16:11.943Z,15.80
2023-05-18T21:18:40.138Z,15.74
2023-05-18T21:21:08.348Z,15.70
2023-05-18T21:23:36.530Z,15.67
2023-05-18T21:26:04.871Z,15.66
2023-05-18T21:28:33.111Z,15.62
2023-05-18T21:31:01.262Z,15.54
2023-05-18T21:33:30.741Z,15.57
2023-05-18T21:35:59.588Z,15.58
2023-05-18T21:38:27.634Z,15.61
2023-05-18T21:40:56.938Z,15.53
2023-05-18T21:43:25.460Z,15.50
2023-05-18T21:45:53.605Z,15.46
2023-05-18T21:48:21.905Z,15.45
2023-05-18T21:50:54.067Z,15.48
2023-05-18T21:53:27.566Z,15.45
2023-05-18T21:55:55.897Z,15.36
2023-05-18T21:58:24.570Z,15.34
2023-05-18T22:01:17.124Z,15.30
2023-05-18T22:03:45.420Z,15.25
2023-05-18T22:07:04.632Z,15.21
2023-05-18T22:09:32.719Z,15.17
2023-05-18T22:12:01.139Z,15.19
2023-05-18T22:14:30.940Z,15.19
2023-05-18T22:16:59.178Z,15.19
2023-05-18T22:19:27.390Z,15.19
2023-05-18T22:21:55.657Z,15.14
2023-05-18T22:24:25.098Z,15.09
2023-05-18T22:26:53.250Z,15.09
2023-05-18T22:29:21.424Z,15.07
2023-05-18T22:31:49.568Z,15.07
2023-05-18T22:34:17.636Z,15.08
2023-05-18T22:36:45.742Z,15.08
2023-05-18T22:39:20.902Z,15.08
2023-05-18T22:41:50.362Z,15.10
2023-05-18T22:44:44.021Z,15.09
2023-05-18T22:47:13.403Z,15.11
2023-05-18T22:49:41.503Z,15.16
2023-05-18T22:52:16.431Z,15.12
2023-05-18T22:54:44.641Z,15.14
2023-05-18T22:57:19.140Z,15.13
2023-05-18T22:59:47.633Z,15.12
2023-05-18T23:02:18.149Z,15.15
2023-05-18T23:04:46.465Z,15.13
2023-05-18T23:07:14.672Z,15.15
2023-05-18T23:09:43.052Z,15.11
2023-05-18T23:12:12.716Z,15.07
2023-05-18T23:14:41.236Z,15.06
2023-05-18T23:17:09.529Z,15.07
2023-05-18T23:19:38.527Z,15.04
2023-05-18T23:22:07.066Z,15.01
2023-05-18T23:24:35.125Z,15.02
2023-05-18T23:27:03.207Z,14.99
2023-05-18T23:29:32.603Z,14.96
2023-05-18T23:32:00.729Z,14.95
2023-05-18T23:34:29.821Z,14.99
2023-05-18T23:37:02.780Z,14.95
2023-05-18T23:39:31.457Z,14.95
2023-05-18T23:42:01.667Z,14.99
2023-05-18T23:44:32.168Z,15.00
2023-05-18T23:47:01.251Z,14.99
2023-05-18T23:49:30.227Z,15.00
2023-05-18T23:52:03.204Z,14.98
2023-05-18T23:54:31.846Z,14.93
2023-05-18T23:57:00.722Z,14.92
2023-05-18T23:59:29.565Z,14.93
